sensor_id;sensor_type;location;lat;lon;timestamp;temperature;humidity
46490;DHT22;32204;49.160;8.580;2022-12-18T00:01:57;-5.50;99.90
46490;DHT22;32204;49.160;8.580;2022-12-18T00:04:25;-5.50;1.00
46490;DHT22;32204;49.160;8.580;2022-12-18T00:06:52;-5.70;99.90
46490;DHT22;32204;49.160;8.580;2022-12-18T00:09:18;-6.00;99.90
46490;DHT22;32204;49.160;8.580;2022-12-18T00:11:44;-6.10;99.90
46490;DHT22;32204;49.160;8.580;2022-12-18T00:14:12;-6.40;99.90
46490;DHT22;32204;49.160;8.580;2022-12-18T00:16:38;-6.30;1.00
46490;DHT22;32204;49.160;8.580;2022-12-18T00:19:04;-6.20;1.00
46490;DHT22;32204;49.160;8.580;2022-12-18T00:21:31;-6.00;1.00
46490;DHT22;32204;49.160;8.580;2022-12-18T00:23:58;-5.80;1.00
46490;DHT22;32204;49.160;8.580;2022-12-18T00:26:26;-5.70;1.00
46490;DHT22;32204;49.160;8.580;2022-12-18T00:28:53;-5.60;1.00
46490;DHT22;32204;49.160;8.580;2022-12-18T00:31:21;-5.50;1.00
46490;DHT22;32204;49.160;8.580;2022-12-18T00:33:47;-5.40;1.00
46490;DHT22;32204;49.160;8.580;2022-12-18T00:36:21;-5.40;99.90
46490;DHT22;32204;49.160;8.580;2022-12-18T00:38:47;-5.30;99.90
46490;DHT22;32204;49.160;8.580;2022-12-18T00:41:15;-5.40;99.90
46490;DHT22;32204;49.160;8.580;2022-12-18T00:44:00;-5.40;99.90
46490;DHT22;32204;49.160;8.580;2022-12-18T00:46:25;-5.40;99.90
46490;DHT22;32204;49.160;8.580;2022-12-18T00:48:51;-5.30;1.00
46490;DHT22;32204;49.160;8.580;2022-12-18T00:51:17;-5.20;1.00
46490;DHT22;32204;49.160;8.580;2022-12-18T00:53:42;-5.10;1.00
46490;DHT22;32204;49.160;8.580;2022-12-18T00:56:08;-5.10;1.00
46490;DHT22;32204;49.160;8.580;2022-12-18T00:58:36;-5.10;1.00
46490;DHT22;32204;49.160;8.580;2022-12-18T01:01:04;-5.10;1.00
46490;DHT22;32204;49.160;8.580;2022-12-18T01:03:30;-5.10;1.00
46490;DHT22;32204;49.160;8.580;2022-12-18T01:05:56;-5.20;99.90
46490;DHT22;32204;49.160;8.580;2022-12-18T01:08:22;-5.60;99.90
46490;DHT22;32204;49.160;8.580;2022-12-18T01:10:47;-5.90;99.90
46490;DHT22;32204;49.160;8.580;2022-12-18T01:13:13;-6.30;1.00
46490;DHT22;32204;49.160;8.580;2022-12-18T01:15:38;-6.40;1.00
46490;DHT22;32204;49.160;8.580;2022-12-18T01:18:06;-6.50;1.00
46490;DHT22;32204;49.160;8.580;2022-12-18T01:20:31;-6.50;1.00
46490;DHT22;32204;49.160;8.580;2022-12-18T01:22:57;-6.50;1.00
46490;DHT22;32204;49.160;8.580;2022-12-18T01:25:23;-6.40;1.00
46490;DHT22;32204;49.160;8.580;2022-12-18T01:27:48;-6.20;1.00
46490;DHT22;32204;49.160;8.580;2022-12-18T01:30:14;-6.10;1.00
46490;DHT22;32204;49.160;8.580;2022-12-18T01:32:40;-6.10;1.00
46490;DHT22;32204;49.160;8.580;2022-12-18T01:35:06;-6.00;1.00
46490;DHT22;32204;49.160;8.580;2022-12-18T01:37:32;-6.20;1.00
46490;DHT22;32204;49.160;8.580;2022-12-18T01:39:57;-6.40;1.00
46490;DHT22;32204;49.160;8.580;2022-12-18T01:42:23;-6.40;1.00
46490;DHT22;32204;49.160;8.580;2022-12-18T01:44:58;-6.40;1.00
46490;DHT22;32204;49.160;8.580;2022-12-18T01:50:16;-6.50;4.90
46490;DHT22;32204;49.160;8.580;2022-12-18T01:52:51;-6.60;7.20
46490;DHT22;32204;49.160;8.580;2022-12-18T01:55:20;-6.50;12.30
46490;DHT22;32204;49.160;8.580;2022-12-18T01:57:47;-6.40;2.00
46490;DHT22;32204;49.160;8.580;2022-12-18T02:00:18;-6.10;2.40
46490;DHT22;32204;49.160;8.580;2022-12-18T02:02:45;-5.90;1.00
46490;DHT22;32204;49.160;8.580;2022-12-18T02:05:14;-5.80;1.00
46490;DHT22;32204;49.160;8.580;2022-12-18T02:07:42;-5.70;1.00
46490;DHT22;32204;49.160;8.580;2022-12-18T02:15:39;-5.80;99.90
46490;DHT22;32204;49.160;8.580;2022-12-18T02:18:19;-6.00;1.00
46490;DHT22;32204;49.160;8.580;2022-12-18T02:20:55;-6.00;1.00
46490;DHT22;32204;49.160;8.580;2022-12-18T02:26:37;-6.10;1.00
46490;DHT22;32204;49.160;8.580;2022-12-18T02:29:10;-6.30;1.00
46490;DHT22;32204;49.160;8.580;2022-12-18T02:31:45;-6.40;1.00
46490;DHT22;32204;49.160;8.580;2022-12-18T02:34:12;-6.40;1.00
46490;DHT22;32204;49.160;8.580;2022-12-18T02:36:41;-6.20;1.00
46490;DHT22;32204;49.160;8.580;2022-12-18T02:39:10;-6.00;1.00
46490;DHT22;32204;49.160;8.580;2022-12-18T02:41:35;-5.90;1.00
46490;DHT22;32204;49.160;8.580;2022-12-18T02:44:08;-5.90;1.00
46490;DHT22;32204;49.160;8.580;2022-12-18T02:46:43;-5.90;1.00
46490;DHT22;32204;49.160;8.580;2022-12-18T02:51:57;-5.80;1.00
46490;DHT22;32204;49.160;8.580;2022-12-18T02:54:55;-5.70;1.00
46490;DHT22;32204;49.160;8.580;2022-12-18T02:57:49;-5.70;1.00
46490;DHT22;32204;49.160;8.580;2022-12-18T03:00:21;-5.60;1.00
46490;DHT22;32204;49.160;8.580;2022-12-18T03:06:04;-5.20;99.90
46490;DHT22;32204;49.160;8.580;2022-12-18T03:08:43;-5.10;99.90
46490;DHT22;32204;49.160;8.580;2022-12-18T03:11:12;-5.10;99.90
46490;DHT22;32204;49.160;8.580;2022-12-18T03:13:46;-5.10;99.90
46490;DHT22;32204;49.160;8.580;2022-12-18T03:16:20;-5.50;99.90
46490;DHT22;32204;49.160;8.580;2022-12-18T03:18:55;-5.70;1.00
46490;DHT22;32204;49.160;8.580;2022-12-18T03:21:28;-5.90;1.00
46490;DHT22;32204;49.160;8.580;2022-12-18T03:23:54;-5.90;1.00
46490;DHT22;32204;49.160;8.580;2022-12-18T03:26:23;-6.00;1.00
46490;DHT22;32204;49.160;8.580;2022-12-18T03:28:57;-6.00;1.00
46490;DHT22;32204;49.160;8.580;2022-12-18T03:31:29;-6.00;13.40
46490;DHT22;32204;49.160;8.580;2022-12-18T03:34:03;-6.00;28.80
46490;DHT22;32204;49.160;8.580;2022-12-18T03:36:32;-6.00;29.20
46490;DHT22;32204;49.160;8.580;2022-12-18T03:38:58;-5.90;36.30
46490;DHT22;32204;49.160;8.580;2022-12-18T03:41:45;-6.00;41.00
46490;DHT22;32204;49.160;8.580;2022-12-18T03:47:14;-6.00;66.70
46490;DHT22;32204;49.160;8.580;2022-12-18T03:55:05;-5.90;93.60
46490;DHT22;32204;49.160;8.580;2022-12-18T03:57:32;-5.80;80.80
46490;DHT22;32204;49.160;8.580;2022-12-18T04:00:06;-5.80;78.30
46490;DHT22;32204;49.160;8.580;2022-12-18T04:02:33;-5.80;76.50
46490;DHT22;32204;49.160;8.580;2022-12-18T04:05:03;-5.80;85.30
46490;DHT22;32204;49.160;8.580;2022-12-18T04:07:30;-5.80;87.50
46490;DHT22;32204;49.160;8.580;2022-12-18T04:09:58;-5.70;92.30
46490;DHT22;32204;49.160;8.580;2022-12-18T04:12:26;-5.70;72.90
46490;DHT22;32204;49.160;8.580;2022-12-18T04:14:52;-5.60;58.10
46490;DHT22;32204;49.160;8.580;2022-12-18T04:17:18;-5.60;59.50
46490;DHT22;32204;49.160;8.580;2022-12-18T04:19:43;-5.60;90.40
46490;DHT22;32204;49.160;8.580;2022-12-18T04:22:10;-5.70;73.90
46490;DHT22;32204;49.160;8.580;2022-12-18T04:24:36;-5.70;63.50
46490;DHT22;32204;49.160;8.580;2022-12-18T04:27:02;-5.70;71.70
46490;DHT22;32204;49.160;8.580;2022-12-18T04:29:27;-5.70;48.10
46490;DHT22;32204;49.160;8.580;2022-12-18T04:31:53;-5.70;56.80
46490;DHT22;32204;49.160;8.580;2022-12-18T04:34:19;-5.80;47.90
46490;DHT22;32204;49.160;8.580;2022-12-18T04:36:45;-5.80;61.80
46490;DHT22;32204;49.160;8.580;2022-12-18T04:39:17;-5.80;44.40
46490;DHT22;32204;49.160;8.580;2022-12-18T04:41:43;-5.80;57.80
46490;DHT22;32204;49.160;8.580;2022-12-18T04:44:09;-5.80;84.70
46490;DHT22;32204;49.160;8.580;2022-12-18T04:46:34;-5.80;95.90
46490;DHT22;32204;49.160;8.580;2022-12-18T04:49:00;-5.80;99.90
46490;DHT22;32204;49.160;8.580;2022-12-18T04:51:25;-5.80;99.90
46490;DHT22;32204;49.160;8.580;2022-12-18T04:53:51;-5.70;99.90
46490;DHT22;32204;49.160;8.580;2022-12-18T04:56:17;-5.70;99.90
46490;DHT22;32204;49.160;8.580;2022-12-18T04:58:43;-5.70;62.30
46490;DHT22;32204;49.160;8.580;2022-12-18T05:01:10;-5.60;49.80
46490;DHT22;32204;49.160;8.580;2022-12-18T05:03:37;-5.50;2.90
46490;DHT22;32204;49.160;8.580;2022-12-18T05:06:03;-5.40;1.00
46490;DHT22;32204;49.160;8.580;2022-12-18T05:08:29;-5.40;1.00
46490;DHT22;32204;49.160;8.580;2022-12-18T05:11:03;-5.50;1.00
46490;DHT22;32204;49.160;8.580;2022-12-18T05:13:30;-5.40;1.00
46490;DHT22;32204;49.160;8.580;2022-12-18T05:15:56;-5.50;1.00
46490;DHT22;32204;49.160;8.580;2022-12-18T05:18:25;-5.50;1.00
46490;DHT22;32204;49.160;8.580;2022-12-18T05:20:51;-5.50;1.00
46490;DHT22;32204;49.160;8.580;2022-12-18T05:23:18;-5.50;1.00
46490;DHT22;32204;49.160;8.580;2022-12-18T05:28:22;-5.50;1.00
46490;DHT22;32204;49.160;8.580;2022-12-18T05:30:54;-5.40;1.00
46490;DHT22;32204;49.160;8.580;2022-12-18T05:33:21;-5.40;1.00
46490;DHT22;32204;49.160;8.580;2022-12-18T05:35:51;-5.40;1.00
46490;DHT22;32204;49.160;8.580;2022-12-18T05:38:17;-5.50;1.00
46490;DHT22;32204;49.160;8.580;2022-12-18T05:40:43;-5.50;1.00
46490;DHT22;32204;49.160;8.580;2022-12-18T05:43:10;-5.60;1.00
46490;DHT22;32204;49.160;8.580;2022-12-18T05:45:39;-5.60;1.00
46490;DHT22;32204;49.160;8.580;2022-12-18T05:48:05;-5.70;18.00
46490;DHT22;32204;49.160;8.580;2022-12-18T05:50:34;-5.70;27.20
46490;DHT22;32204;49.160;8.580;2022-12-18T05:53:01;-5.50;17.50
46490;DHT22;32204;49.160;8.580;2022-12-18T05:55:27;-5.50;11.20
46490;DHT22;32204;49.160;8.580;2022-12-18T05:57:53;-5.50;22.10
46490;DHT22;32204;49.160;8.580;2022-12-18T06:00:18;-5.50;11.30
46490;DHT22;32204;49.160;8.580;2022-12-18T06:02:47;-5.50;29.30
46490;DHT22;32204;49.160;8.580;2022-12-18T06:05:12;-5.50;10.10
46490;DHT22;32204;49.160;8.580;2022-12-18T06:07:38;-5.40;13.20
46490;DHT22;32204;49.160;8.580;2022-12-18T06:10:04;-5.40;14.50
46490;DHT22;32204;49.160;8.580;2022-12-18T06:12:30;-5.30;1.00
46490;DHT22;32204;49.160;8.580;2022-12-18T06:14:55;-5.20;1.00
46490;DHT22;32204;49.160;8.580;2022-12-18T06:17:21;-5.10;1.00
46490;DHT22;32204;49.160;8.580;2022-12-18T06:19:47;-5.20;1.00
46490;DHT22;32204;49.160;8.580;2022-12-18T06:22:12;-5.10;1.00
46490;DHT22;32204;49.160;8.580;2022-12-18T06:24:38;-5.00;1.00
46490;DHT22;32204;49.160;8.580;2022-12-18T06:27:04;-4.90;1.00
46490;DHT22;32204;49.160;8.580;2022-12-18T06:29:29;-4.70;1.00
46490;DHT22;32204;49.160;8.580;2022-12-18T06:31:55;-4.70;1.00
46490;DHT22;32204;49.160;8.580;2022-12-18T06:34:20;-4.70;1.00
46490;DHT22;32204;49.160;8.580;2022-12-18T06:36:46;-4.70;1.00
46490;DHT22;32204;49.160;8.580;2022-12-18T06:39:11;-4.80;1.00
46490;DHT22;32204;49.160;8.580;2022-12-18T06:41:37;-4.80;99.90
46490;DHT22;32204;49.160;8.580;2022-12-18T06:44:03;-4.70;1.00
46490;DHT22;32204;49.160;8.580;2022-12-18T06:46:28;-4.70;99.90
46490;DHT22;32204;49.160;8.580;2022-12-18T06:48:54;-4.60;99.90
46490;DHT22;32204;49.160;8.580;2022-12-18T06:51:21;-4.60;99.90
46490;DHT22;32204;49.160;8.580;2022-12-18T06:53:47;-4.60;99.90
46490;DHT22;32204;49.160;8.580;2022-12-18T06:56:13;-4.60;99.90
46490;DHT22;32204;49.160;8.580;2022-12-18T06:58:39;-4.60;99.90
46490;DHT22;32204;49.160;8.580;2022-12-18T07:01:06;-4.60;99.90
46490;DHT22;32204;49.160;8.580;2022-12-18T07:03:32;-4.50;99.90
46490;DHT22;32204;49.160;8.580;2022-12-18T07:05:58;-4.50;99.90
46490;DHT22;32204;49.160;8.580;2022-12-18T07:08:24;-4.70;1.00
46490;DHT22;32204;49.160;8.580;2022-12-18T07:10:50;-4.90;16.10
46490;DHT22;32204;49.160;8.580;2022-12-18T07:13:16;-5.00;1.00
46490;DHT22;32204;49.160;8.580;2022-12-18T07:15:43;-5.10;99.90
46490;DHT22;32204;49.160;8.580;2022-12-18T07:18:09;-5.30;1.00
46490;DHT22;32204;49.160;8.580;2022-12-18T07:20:34;-5.60;1.00
46490;DHT22;32204;49.160;8.580;2022-12-18T07:23:02;-5.70;99.90
46490;DHT22;32204;49.160;8.580;2022-12-18T07:25:28;-5.80;36.40
46490;DHT22;32204;49.160;8.580;2022-12-18T07:27:54;-5.80;99.90
46490;DHT22;32204;49.160;8.580;2022-12-18T07:30:20;-5.80;99.90
46490;DHT22;32204;49.160;8.580;2022-12-18T07:32:46;-5.90;99.90
46490;DHT22;32204;49.160;8.580;2022-12-18T07:35:11;-5.90;99.90
46490;DHT22;32204;49.160;8.580;2022-12-18T07:37:37;-5.90;74.70
46490;DHT22;32204;49.160;8.580;2022-12-18T07:40:02;-5.90;56.50
46490;DHT22;32204;49.160;8.580;2022-12-18T07:42:28;-6.00;93.10
46490;DHT22;32204;49.160;8.580;2022-12-18T07:44:58;-5.80;99.90
46490;DHT22;32204;49.160;8.580;2022-12-18T07:47:24;-5.90;99.90
46490;DHT22;32204;49.160;8.580;2022-12-18T07:49:49;-5.90;27.10
46490;DHT22;32204;49.160;8.580;2022-12-18T07:52:15;-6.10;99.90
46490;DHT22;32204;49.160;8.580;2022-12-18T07:54:41;-6.20;99.90
46490;DHT22;32204;49.160;8.580;2022-12-18T07:57:07;-6.30;99.90
46490;DHT22;32204;49.160;8.580;2022-12-18T07:59:33;-6.20;99.90
46490;DHT22;32204;49.160;8.580;2022-12-18T08:01:59;-6.30;99.90
46490;DHT22;32204;49.160;8.580;2022-12-18T08:04:25;-6.40;99.90
46490;DHT22;32204;49.160;8.580;2022-12-18T08:06:50;-6.50;99.90
46490;DHT22;32204;49.160;8.580;2022-12-18T08:09:16;-6.40;99.90
46490;DHT22;32204;49.160;8.580;2022-12-18T08:11:42;-6.40;99.90
46490;DHT22;32204;49.160;8.580;2022-12-18T08:14:08;-6.50;99.90
46490;DHT22;32204;49.160;8.580;2022-12-18T08:16:34;-6.40;99.90
46490;DHT22;32204;49.160;8.580;2022-12-18T08:19:00;-6.20;99.90
46490;DHT22;32204;49.160;8.580;2022-12-18T08:21:28;-6.20;99.90
46490;DHT22;32204;49.160;8.580;2022-12-18T08:23:57;-6.10;99.90
46490;DHT22;32204;49.160;8.580;2022-12-18T08:26:24;-6.00;99.90
46490;DHT22;32204;49.160;8.580;2022-12-18T08:28:53;-5.80;99.50
46490;DHT22;32204;49.160;8.580;2022-12-18T08:31:19;-5.70;2.80
46490;DHT22;32204;49.160;8.580;2022-12-18T08:33:49;-5.70;1.00
46490;DHT22;32204;49.160;8.580;2022-12-18T08:36:16;-5.60;68.00
46490;DHT22;32204;49.160;8.580;2022-12-18T08:38:42;-5.60;1.00
46490;DHT22;32204;49.160;8.580;2022-12-18T08:41:11;-5.50;8.10
46490;DHT22;32204;49.160;8.580;2022-12-18T08:43:37;-5.60;1.00
46490;DHT22;32204;49.160;8.580;2022-12-18T08:46:22;-5.60;1.00
46490;DHT22;32204;49.160;8.580;2022-12-18T08:48:51;-5.70;1.00
46490;DHT22;32204;49.160;8.580;2022-12-18T08:51:17;-5.60;99.90
46490;DHT22;32204;49.160;8.580;2022-12-18T08:53:43;-5.70;99.90
46490;DHT22;32204;49.160;8.580;2022-12-18T08:56:10;-5.70;99.90
46490;DHT22;32204;49.160;8.580;2022-12-18T08:58:35;-5.70;99.90
46490;DHT22;32204;49.160;8.580;2022-12-18T09:01:06;-5.50;99.90
46490;DHT22;32204;49.160;8.580;2022-12-18T09:03:32;-5.30;99.90
46490;DHT22;32204;49.160;8.580;2022-12-18T09:05:58;-5.10;99.90
46490;DHT22;32204;49.160;8.580;2022-12-18T09:08:25;-5.10;1.00
46490;DHT22;32204;49.160;8.580;2022-12-18T09:10:51;-4.90;1.50
46490;DHT22;32204;49.160;8.580;2022-12-18T09:13:17;-4.60;13.00
46490;DHT22;32204;49.160;8.580;2022-12-18T09:15:45;-4.50;1.00
46490;DHT22;32204;49.160;8.580;2022-12-18T09:18:11;-4.50;99.90
46490;DHT22;32204;49.160;8.580;2022-12-18T09:20:40;-4.40;1.00
46490;DHT22;32204;49.160;8.580;2022-12-18T09:23:07;-4.30;1.00
46490;DHT22;32204;49.160;8.580;2022-12-18T09:25:33;-4.50;1.00
46490;DHT22;32204;49.160;8.580;2022-12-18T09:30:56;-4.60;99.90
46490;DHT22;32204;49.160;8.580;2022-12-18T09:33:21;-4.40;99.90
46490;DHT22;32204;49.160;8.580;2022-12-18T09:35:47;-4.30;99.90
46490;DHT22;32204;49.160;8.580;2022-12-18T09:38:18;-4.20;99.90
46490;DHT22;32204;49.160;8.580;2022-12-18T09:40:49;-4.10;99.90
46490;DHT22;32204;49.160;8.580;2022-12-18T09:46:08;-4.00;99.90
46490;DHT22;32204;49.160;8.580;2022-12-18T09:48:46;-4.00;99.90
46490;DHT22;32204;49.160;8.580;2022-12-18T09:51:26;-4.00;99.90
46490;DHT22;32204;49.160;8.580;2022-12-18T09:53:58;-3.80;99.90
46490;DHT22;32204;49.160;8.580;2022-12-18T09:56:28;-3.70;99.90
46490;DHT22;32204;49.160;8.580;2022-12-18T09:59:01;-3.70;99.90
46490;DHT22;32204;49.160;8.580;2022-12-18T10:01:28;-3.80;99.90
46490;DHT22;32204;49.160;8.580;2022-12-18T10:03:55;-3.90;99.90
46490;DHT22;32204;49.160;8.580;2022-12-18T10:14:41;-3.80;99.90
46490;DHT22;32204;49.160;8.580;2022-12-18T10:28:22;-3.40;99.90
46490;DHT22;32204;49.160;8.580;2022-12-18T10:30:48;-3.20;99.90
46490;DHT22;32204;49.160;8.580;2022-12-18T10:33:20;-3.40;99.90
46490;DHT22;32204;49.160;8.580;2022-12-18T10:35:48;-3.30;99.90
46490;DHT22;32204;49.160;8.580;2022-12-18T10:43:27;-3.10;99.90
46490;DHT22;32204;49.160;8.580;2022-12-18T10:51:25;-2.70;99.90
46490;DHT22;32204;49.160;8.580;2022-12-18T10:54:06;-2.70;99.90
46490;DHT22;32204;49.160;8.580;2022-12-18T10:56:35;-2.70;99.90
46490;DHT22;32204;49.160;8.580;2022-12-18T10:59:02;-2.80;99.90
46490;DHT22;32204;49.160;8.580;2022-12-18T11:01:48;-2.70;99.90
46490;DHT22;32204;49.160;8.580;2022-12-18T11:04:20;-2.50;99.90
46490;DHT22;32204;49.160;8.580;2022-12-18T11:07:01;-2.40;99.90
46490;DHT22;32204;49.160;8.580;2022-12-18T11:09:32;-2.30;95.00
46490;DHT22;32204;49.160;8.580;2022-12-18T11:11:59;-2.10;99.90
46490;DHT22;32204;49.160;8.580;2022-12-18T11:14:28;-2.00;35.40
46490;DHT22;32204;49.160;8.580;2022-12-18T11:16:55;-2.00;1.00
46490;DHT22;32204;49.160;8.580;2022-12-18T11:19:36;-2.00;9.10
46490;DHT22;32204;49.160;8.580;2022-12-18T11:22:17;-1.90;99.90
46490;DHT22;32204;49.160;8.580;2022-12-18T11:24:53;-1.80;99.90
46490;DHT22;32204;49.160;8.580;2022-12-18T11:27:19;-1.70;1.00
46490;DHT22;32204;49.160;8.580;2022-12-18T11:29:44;-1.60;99.90
46490;DHT22;32204;49.160;8.580;2022-12-18T11:32:36;-1.60;99.90
46490;DHT22;32204;49.160;8.580;2022-12-18T11:37:44;-1.70;1.00
46490;DHT22;32204;49.160;8.580;2022-12-18T11:40:17;-1.80;1.00
46490;DHT22;32204;49.160;8.580;2022-12-18T11:42:59;-1.60;99.90
46490;DHT22;32204;49.160;8.580;2022-12-18T11:45:34;-1.30;1.00
46490;DHT22;32204;49.160;8.580;2022-12-18T11:48:05;-1.30;99.90
46490;DHT22;32204;49.160;8.580;2022-12-18T11:50:53;-1.20;1.00
46490;DHT22;32204;49.160;8.580;2022-12-18T11:53:19;-1.20;99.90
46490;DHT22;32204;49.160;8.580;2022-12-18T12:01:16;-1.10;99.90
46490;DHT22;32204;49.160;8.580;2022-12-18T12:18:16;-1.00;1.00
46490;DHT22;32204;49.160;8.580;2022-12-18T12:25:47;-0.80;99.90
46490;DHT22;32204;49.160;8.580;2022-12-18T12:36:41;-0.80;99.90
46490;DHT22;32204;49.160;8.580;2022-12-18T12:39:16;-0.80;99.90
46490;DHT22;32204;49.160;8.580;2022-12-18T12:41:45;-0.70;99.90
46490;DHT22;32204;49.160;8.580;2022-12-18T12:44:58;-0.90;99.90
46490;DHT22;32204;49.160;8.580;2022-12-18T12:47:38;-0.90;99.90
46490;DHT22;32204;49.160;8.580;2022-12-18T12:50:13;-0.80;99.90
46490;DHT22;32204;49.160;8.580;2022-12-18T12:52:46;-0.80;99.90
46490;DHT22;32204;49.160;8.580;2022-12-18T12:55:28;-0.90;1.00
46490;DHT22;32204;49.160;8.580;2022-12-18T12:57:57;-0.90;1.00
46490;DHT22;32204;49.160;8.580;2022-12-18T13:00:26;-1.00;22.70
46490;DHT22;32204;49.160;8.580;2022-12-18T13:03:01;-0.90;79.90
46490;DHT22;32204;49.160;8.580;2022-12-18T13:05:33;-0.90;99.90
46490;DHT22;32204;49.160;8.580;2022-12-18T13:08:03;-0.70;71.70
46490;DHT22;32204;49.160;8.580;2022-12-18T13:10:32;-0.70;1.00
46490;DHT22;32204;49.160;8.580;2022-12-18T13:12:59;-0.70;1.00
46490;DHT22;32204;49.160;8.580;2022-12-18T13:15:39;-0.70;16.40
46490;DHT22;32204;49.160;8.580;2022-12-18T13:20:35;-0.70;34.70
46490;DHT22;32204;49.160;8.580;2022-12-18T13:28:53;-0.70;99.90
46490;DHT22;32204;49.160;8.580;2022-12-18T13:34:19;-0.70;99.90
46490;DHT22;32204;49.160;8.580;2022-12-18T13:36:46;-0.70;99.90
46490;DHT22;32204;49.160;8.580;2022-12-18T13:41:48;-0.60;99.90
46490;DHT22;32204;49.160;8.580;2022-12-18T13:44:33;-0.50;97.40
46490;DHT22;32204;49.160;8.580;2022-12-18T13:47:00;-0.40;27.00
46490;DHT22;32204;49.160;8.580;2022-12-18T13:49:41;-0.50;1.00
46490;DHT22;32204;49.160;8.580;2022-12-18T13:52:21;-0.50;92.40
46490;DHT22;32204;49.160;8.580;2022-12-18T13:54:53;-0.60;1.00
46490;DHT22;32204;49.160;8.580;2022-12-18T13:59:57;-0.60;99.90
46490;DHT22;32204;49.160;8.580;2022-12-18T14:02:25;-0.50;48.20
46490;DHT22;32204;49.160;8.580;2022-12-18T14:04:52;-0.50;94.80
46490;DHT22;32204;49.160;8.580;2022-12-18T14:07:25;-0.40;22.10
46490;DHT22;32204;49.160;8.580;2022-12-18T14:09:55;-0.50;1.00
46490;DHT22;32204;49.160;8.580;2022-12-18T14:15:23;-0.50;1.00
46490;DHT22;32204;49.160;8.580;2022-12-18T14:20:41;-0.60;69.80
46490;DHT22;32204;49.160;8.580;2022-12-18T14:25:53;-0.60;94.50
46490;DHT22;32204;49.160;8.580;2022-12-18T14:28:18;-0.60;99.90
46490;DHT22;32204;49.160;8.580;2022-12-18T14:30:45;-0.70;99.90
46490;DHT22;32204;49.160;8.580;2022-12-18T14:38:37;-0.70;99.90
46490;DHT22;32204;49.160;8.580;2022-12-18T14:41:04;-0.70;99.90
46490;DHT22;32204;49.160;8.580;2022-12-18T14:43:35;-0.80;99.90
46490;DHT22;32204;49.160;8.580;2022-12-18T14:46:03;-0.80;99.90
46490;DHT22;32204;49.160;8.580;2022-12-18T14:51:03;-0.80;99.90
46490;DHT22;32204;49.160;8.580;2022-12-18T14:53:34;-0.80;99.90
46490;DHT22;32204;49.160;8.580;2022-12-18T14:56:01;-0.90;99.90
46490;DHT22;32204;49.160;8.580;2022-12-18T14:58:27;-1.00;99.90
46490;DHT22;32204;49.160;8.580;2022-12-18T15:00:53;-1.00;99.90
46490;DHT22;32204;49.160;8.580;2022-12-18T15:03:20;-1.00;99.90
46490;DHT22;32204;49.160;8.580;2022-12-18T15:05:47;-1.00;99.90
46490;DHT22;32204;49.160;8.580;2022-12-18T15:08:36;-1.00;99.90
46490;DHT22;32204;49.160;8.580;2022-12-18T15:11:02;-1.10;99.90
46490;DHT22;32204;49.160;8.580;2022-12-18T15:13:28;-1.10;99.90
46490;DHT22;32204;49.160;8.580;2022-12-18T15:15:57;-1.20;99.90
46490;DHT22;32204;49.160;8.580;2022-12-18T15:18:30;-1.20;99.90
46490;DHT22;32204;49.160;8.580;2022-12-18T15:20:59;-1.20;99.90
46490;DHT22;32204;49.160;8.580;2022-12-18T15:26:13;-1.20;1.00
46490;DHT22;32204;49.160;8.580;2022-12-18T15:28:47;-1.20;99.90
46490;DHT22;32204;49.160;8.580;2022-12-18T15:34:00;-1.10;99.90
46490;DHT22;32204;49.160;8.580;2022-12-18T15:36:28;-1.30;99.90
46490;DHT22;32204;49.160;8.580;2022-12-18T15:38:57;-1.30;99.90
46490;DHT22;32204;49.160;8.580;2022-12-18T15:41:23;-1.30;99.90
46490;DHT22;32204;49.160;8.580;2022-12-18T15:43:51;-1.30;99.90
46490;DHT22;32204;49.160;8.580;2022-12-18T15:46:19;-1.30;99.90
46490;DHT22;32204;49.160;8.580;2022-12-18T15:48:47;-1.30;99.90
46490;DHT22;32204;49.160;8.580;2022-12-18T15:51:15;-1.30;99.90
46490;DHT22;32204;49.160;8.580;2022-12-18T15:53:41;-1.30;99.90
46490;DHT22;32204;49.160;8.580;2022-12-18T15:56:12;-1.30;99.90
46490;DHT22;32204;49.160;8.580;2022-12-18T15:58:56;-1.30;99.90
46490;DHT22;32204;49.160;8.580;2022-12-18T16:01:27;-1.30;99.90
46490;DHT22;32204;49.160;8.580;2022-12-18T16:03:54;-1.40;99.90
46490;DHT22;32204;49.160;8.580;2022-12-18T16:06:20;-1.40;99.90
46490;DHT22;32204;49.160;8.580;2022-12-18T16:08:47;-1.40;99.90
46490;DHT22;32204;49.160;8.580;2022-12-18T16:11:27;-1.40;99.90
46490;DHT22;32204;49.160;8.580;2022-12-18T16:14:34;-1.40;99.90
46490;DHT22;32204;49.160;8.580;2022-12-18T16:17:03;-1.30;99.90
46490;DHT22;32204;49.160;8.580;2022-12-18T16:19:30;-1.40;99.90
46490;DHT22;32204;49.160;8.580;2022-12-18T16:21:57;-1.40;99.90
46490;DHT22;32204;49.160;8.580;2022-12-18T16:24:28;-1.30;99.90
46490;DHT22;32204;49.160;8.580;2022-12-18T16:26:56;-1.30;99.90
46490;DHT22;32204;49.160;8.580;2022-12-18T16:29:23;-1.30;99.90
46490;DHT22;32204;49.160;8.580;2022-12-18T16:31:59;-1.30;99.90
46490;DHT22;32204;49.160;8.580;2022-12-18T16:34:30;-1.20;99.90
46490;DHT22;32204;49.160;8.580;2022-12-18T16:37:01;-1.10;99.90
46490;DHT22;32204;49.160;8.580;2022-12-18T16:39:27;-1.10;99.90
46490;DHT22;32204;49.160;8.580;2022-12-18T16:41:53;-1.00;99.90
46490;DHT22;32204;49.160;8.580;2022-12-18T16:44:19;-1.10;99.90
46490;DHT22;32204;49.160;8.580;2022-12-18T16:46:45;-1.10;99.90
46490;DHT22;32204;49.160;8.580;2022-12-18T16:49:12;-1.10;99.90
46490;DHT22;32204;49.160;8.580;2022-12-18T16:51:38;-1.00;99.90
46490;DHT22;32204;49.160;8.580;2022-12-18T16:54:04;-1.10;99.90
46490;DHT22;32204;49.160;8.580;2022-12-18T16:56:30;-1.00;99.90
46490;DHT22;32204;49.160;8.580;2022-12-18T16:58:57;-1.00;99.90
46490;DHT22;32204;49.160;8.580;2022-12-18T17:01:25;-0.90;99.90
46490;DHT22;32204;49.160;8.580;2022-12-18T17:06:22;-1.00;99.90
46490;DHT22;32204;49.160;8.580;2022-12-18T17:11:26;-0.90;99.90
46490;DHT22;32204;49.160;8.580;2022-12-18T17:13:52;-0.80;99.90
46490;DHT22;32204;49.160;8.580;2022-12-18T17:16:18;-0.80;99.90
46490;DHT22;32204;49.160;8.580;2022-12-18T17:18:45;-0.80;99.90
46490;DHT22;32204;49.160;8.580;2022-12-18T17:21:12;-0.70;99.90
46490;DHT22;32204;49.160;8.580;2022-12-18T17:23:40;-0.70;99.90
46490;DHT22;32204;49.160;8.580;2022-12-18T17:26:06;-0.80;99.90
46490;DHT22;32204;49.160;8.580;2022-12-18T17:28:33;-0.80;99.90
46490;DHT22;32204;49.160;8.580;2022-12-18T17:30:59;-0.90;99.90
46490;DHT22;32204;49.160;8.580;2022-12-18T17:33:26;-0.90;99.90
46490;DHT22;32204;49.160;8.580;2022-12-18T17:35:52;-0.80;99.90
46490;DHT22;32204;49.160;8.580;2022-12-18T17:38:18;-0.80;99.90
46490;DHT22;32204;49.160;8.580;2022-12-18T17:40:43;-0.80;99.90
46490;DHT22;32204;49.160;8.580;2022-12-18T17:43:10;-0.70;99.90
46490;DHT22;32204;49.160;8.580;2022-12-18T17:45:39;-0.60;99.90
46490;DHT22;32204;49.160;8.580;2022-12-18T17:48:05;-0.60;99.90
46490;DHT22;32204;49.160;8.580;2022-12-18T17:50:32;-0.70;99.90
46490;DHT22;32204;49.160;8.580;2022-12-18T17:52:58;-0.70;99.90
46490;DHT22;32204;49.160;8.580;2022-12-18T17:55:25;-0.70;99.90
46490;DHT22;32204;49.160;8.580;2022-12-18T17:57:51;-0.60;99.90
46490;DHT22;32204;49.160;8.580;2022-12-18T18:00:17;-0.60;99.90
46490;DHT22;32204;49.160;8.580;2022-12-18T18:02:43;-0.60;99.90
46490;DHT22;32204;49.160;8.580;2022-12-18T18:05:09;-0.70;99.90
46490;DHT22;32204;49.160;8.580;2022-12-18T18:07:34;-0.60;99.90
46490;DHT22;32204;49.160;8.580;2022-12-18T18:10:00;-0.60;99.90